Time;durP1;ratioP1;P1;durP2;ratioP2;P2;SDS_P1;SDS_P2;PMS_P1;PMS_P2;Temp;Humidity;BMP_temperature;BMP_pressure;BME280_temperature;BME280_humidity;BME280_pressure;Samples;Min_cycle;Max_cycle;Signal;HPM_P1;HPM_P2
2022/05/14 00:02:00;;;;;;;13.35;5.57;;;;;;;;;;5139464;27;20542;-47
2022/05/14 00:04:25;;;;;;;8.82;5.70;;;;;;;;;;5142217;27;20015;-45
2022/05/14 00:06:51;;;;;;;6.47;5.10;;;;;;;;;;5140055;27;20340;-48
2022/05/14 00:09:16;;;;;;;8.30;5.32;;;;;;;;;;5139732;27;20463;-45
2022/05/14 00:14:26;;;;;;;8.55;4.40;;;;;;;;;;5140456;27;20065;-46
2022/05/14 00:16:51;;;;;;;11.77;5.38;;;;;;;;;;5137694;27;20030;-45
2022/05/14 00:19:17;;;;;;;14.90;4.43;;;;;;;;;;5137020;27;20055;-47
2022/05/14 00:21:42;;;;;;;7.65;6.68;;;;;;;;;;5142704;27;20055;-47
2022/05/14 00:24:08;;;;;;;8.32;5.68;;;;;;;;;;5139421;27;20029;-48
2022/05/14 00:26:35;;;;;;;7.30;4.72;;;;;;;;;;5138563;27;20042;-45
2022/05/14 00:29:00;;;;;;;12.23;4.63;;;;;;;;;;5140145;27;20105;-47
2022/05/14 00:31:26;;;;;;;7.15;5.10;;;;;;;;;;5140676;27;20011;-47
2022/05/14 00:33:51;;;;;;;7.30;5.05;;;;;;;;;;5138649;27;20031;-45
2022/05/14 00:36:16;;;;;;;4.85;3.72;;;;;;;;;;5138603;27;20088;-47
2022/05/14 00:38:42;;;;;;;8.23;4.68;;;;;;;;;;5136973;27;20503;-46
2022/05/14 00:41:08;;;;;;;16.50;5.20;;;;;;;;;;5140360;27;20055;-48
2022/05/14 00:43:34;;;;;;;7.85;4.32;;;;;;;;;;5138552;27;20503;-46
2022/05/14 00:46:05;;;;;;;4.60;3.35;;;;;;;;;;5134072;27;20138;-46
2022/05/14 00:48:30;;;;;;;;;;;;;;;;;;5141965;27;20101;-47
2022/05/14 00:50:57;;;;;;;15.20;5.60;;;;;;;;;;5139393;27;20393;-46
2022/05/14 00:53:36;;;;;;;15.68;2.95;;;;;;;;;;5145101;27;20022;-47
2022/05/14 00:56:04;;;;;;;19.80;5.05;;;;;;;;;;5139525;27;20023;-45
2022/05/14 00:58:38;;;;;;;5.43;3.45;;;;;;;;;;5140913;27;20015;-48
2022/05/14 01:01:03;;;;;;;12.02;4.32;;;;;;;;;;5135975;27;20114;-45
2022/05/14 01:03:29;;;;;;;9.43;4.35;;;;;;;;;;5138907;27;20114;-45
2022/05/14 01:05:55;;;;;;;5.45;3.63;;;;;;;;;;5139052;27;20054;-46
2022/05/14 01:08:20;;;;;;;4.68;3.63;;;;;;;;;;5141450;27;20007;-46
2022/05/14 01:10:46;;;;;;;4.82;4.30;;;;;;;;;;5139602;27;20010;-48
2022/05/14 01:13:12;;;;;;;9.38;4.28;;;;;;;;;;5136740;27;20681;-45
2022/05/14 01:15:40;;;;;;;5.88;4.00;;;;;;;;;;5136277;27;20035;-45
2022/05/14 01:18:05;;;;;;;12.57;5.45;;;;;;;;;;5138621;27;20476;-46
2022/05/14 01:20:35;;;;;;;6.53;4.13;;;;;;;;;;5139267;27;20074;-46
2022/05/14 01:23:09;;;;;;;9.80;5.47;;;;;;;;;;5137664;27;20015;-43
2022/05/14 01:28:38;;;;;;;10.45;6.10;;;;;;;;;;5139747;27;20075;-48
2022/05/14 01:31:03;;;;;;;6.43;4.28;;;;;;;;;;5141124;27;20026;-49
2022/05/14 01:33:29;;;;;;;9.23;4.05;;;;;;;;;;5143985;27;20015;-46
2022/05/14 01:35:55;;;;;;;6.53;3.50;;;;;;;;;;5143006;27;20457;-46
2022/05/14 01:38:21;;;;;;;10.45;5.25;;;;;;;;;;5139552;27;20106;-48
2022/05/14 01:40:46;;;;;;;5.28;3.47;;;;;;;;;;5145244;27;20133;-51
2022/05/14 01:43:11;;;;;;;6.60;4.50;;;;;;;;;;5146549;27;20111;-48
2022/05/14 01:45:37;;;;;;;13.00;4.72;;;;;;;;;;5143183;27;20027;-45
2022/05/14 01:48:02;;;;;;;5.10;4.60;;;;;;;;;;5143149;27;20026;-49
2022/05/14 01:50:28;;;;;;;10.70;5.00;;;;;;;;;;5142156;27;20058;-49
2022/05/14 01:52:53;;;;;;;4.55;4.10;;;;;;;;;;5142105;27;20098;-48
2022/05/14 01:55:18;;;;;;;18.98;4.60;;;;;;;;;;5140386;27;20037;-45
2022/05/14 01:57:44;;;;;;;17.08;4.45;;;;;;;;;;5138896;27;20064;-45
2022/05/14 02:00:11;;;;;;;7.18;3.97;;;;;;;;;;5141725;27;20053;-48
2022/05/14 02:02:36;;;;;;;5.55;3.95;;;;;;;;;;5143399;27;20027;-48
2022/05/14 02:05:02;;;;;;;6.40;3.10;;;;;;;;;;5142039;27;20467;-49
2022/05/14 02:07:27;;;;;;;5.50;3.47;;;;;;;;;;5142396;27;20062;-49
2022/05/14 02:09:53;;;;;;;6.22;3.70;;;;;;;;;;5142998;27;20142;-48
2022/05/14 02:12:18;;;;;;;7.05;4.00;;;;;;;;;;5139895;27;20011;-47
2022/05/14 02:14:45;;;;;;;7.35;4.30;;;;;;;;;;5141722;27;20483;-47
2022/05/14 02:17:11;;;;;;;7.60;4.35;;;;;;;;;;5141363;27;20124;-47
2022/05/14 02:19:36;;;;;;;5.35;4.07;;;;;;;;;;5141923;27;20463;-45
2022/05/14 02:22:03;;;;;;;4.88;3.33;;;;;;;;;;5141495;27;20671;-42
2022/05/14 02:24:29;;;;;;;11.43;4.50;;;;;;;;;;5139789;27;20031;-45
2022/05/14 02:26:54;;;;;;;5.32;3.72;;;;;;;;;;5142700;27;20117;-49
2022/05/14 02:29:19;;;;;;;9.82;3.55;;;;;;;;;;5143696;27;20094;-47
2022/05/14 02:31:45;;;;;;;3.90;2.72;;;;;;;;;;5139261;27;20754;-45
2022/05/14 02:34:10;;;;;;;7.50;4.78;;;;;;;;;;5140509;27;20015;-45
2022/05/14 02:36:36;;;;;;;23.08;4.18;;;;;;;;;;5144782;27;20069;-43
2022/05/14 02:39:02;;;;;;;5.70;3.78;;;;;;;;;;5139063;27;20118;-46
2022/05/14 02:41:27;;;;;;;4.90;2.33;;;;;;;;;;5144400;27;20421;-49
2022/05/14 02:43:53;;;;;;;3.63;2.35;;;;;;;;;;5142446;27;20118;-47
2022/05/14 02:46:19;;;;;;;8.48;3.40;;;;;;;;;;5140464;27;20090;-49
2022/05/14 02:48:44;;;;;;;7.88;4.28;;;;;;;;;;5142841;27;20015;-43
2022/05/14 02:51:10;;;;;;;5.15;3.58;;;;;;;;;;5139311;27;20400;-47
2022/05/14 02:53:35;;;;;;;6.60;3.38;;;;;;;;;;5139993;27;20114;-49
2022/05/14 02:56:00;;;;;;;5.97;3.25;;;;;;;;;;5138041;27;20049;-45
2022/05/14 03:01:09;;;;;;;3.58;2.75;;;;;;;;;;5144569;27;20025;-46
2022/05/14 03:03:35;;;;;;;5.57;2.28;;;;;;;;;;5141770;27;20023;-48
2022/05/14 03:06:00;;;;;;;7.80;3.83;;;;;;;;;;5139030;27;20034;-47
2022/05/14 03:08:26;;;;;;;7.25;4.07;;;;;;;;;;5142619;27;20734;-44
2022/05/14 03:10:51;;;;;;;6.55;4.32;;;;;;;;;;5141343;27;20193;-45
2022/05/14 03:13:16;;;;;;;7.20;4.38;;;;;;;;;;5140102;27;20030;-49
2022/05/14 03:15:42;;;;;;;7.25;3.08;;;;;;;;;;5140842;27;20059;-43
2022/05/14 03:18:07;;;;;;;3.85;2.83;;;;;;;;;;5141015;27;20070;-46
2022/05/14 03:20:32;;;;;;;8.50;3.92;;;;;;;;;;5144320;27;20019;-48
2022/05/14 03:22:58;;;;;;;4.35;3.53;;;;;;;;;;5140423;27;20031;-47
2022/05/14 03:25:24;;;;;;;6.60;3.47;;;;;;;;;;5140869;27;20470;-48
2022/05/14 03:27:50;;;;;;;9.85;4.15;;;;;;;;;;5142931;27;20052;-44
2022/05/14 03:30:15;;;;;;;12.95;3.67;;;;;;;;;;5140812;27;20081;-47
2022/05/14 03:32:41;;;;;;;10.35;7.15;;;;;;;;;;5141704;27;20034;-46
2022/05/14 03:35:08;;;;;;;7.82;4.00;;;;;;;;;;5141501;27;20399;-49
2022/05/14 03:37:33;;;;;;;9.73;4.63;;;;;;;;;;5139959;27;20014;-47
2022/05/14 03:39:59;;;;;;;9.00;5.07;;;;;;;;;;5137326;27;20050;-48
2022/05/14 03:42:26;;;;;;;6.82;5.10;;;;;;;;;;5139423;27;20061;-47
2022/05/14 03:44:51;;;;;;;6.47;3.03;;;;;;;;;;5139619;27;20022;-45
2022/05/14 03:47:17;;;;;;;5.32;3.38;;;;;;;;;;5140780;27;20518;-46
2022/05/14 03:49:43;;;;;;;7.28;4.38;;;;;;;;;;5137618;27;20017;-45
2022/05/14 03:52:08;;;;;;;4.38;3.33;;;;;;;;;;5139772;27;20025;-46
2022/05/14 03:54:34;;;;;;;6.88;3.95;;;;;;;;;;5141818;27;20744;-47
2022/05/14 03:56:59;;;;;;;2.97;2.47;;;;;;;;;;5139703;27;20035;-49
2022/05/14 03:59:24;;;;;;;6.07;2.80;;;;;;;;;;5141725;27;20018;-45
2022/05/14 04:01:50;;;;;;;6.20;2.72;;;;;;;;;;5141274;27;20018;-49
2022/05/14 04:04:15;;;;;;;8.82;3.85;;;;;;;;;;5140271;27;20507;-47
2022/05/14 04:06:40;;;;;;;8.52;2.90;;;;;;;;;;5142932;27;20028;-43
2022/05/14 04:09:06;;;;;;;6.88;2.95;;;;;;;;;;5140982;27;20015;-48
2022/05/14 04:11:31;;;;;;;8.20;3.13;;;;;;;;;;5141922;27;20046;-48
2022/05/14 04:13:57;;;;;;;5.60;3.10;;;;;;;;;;5140829;27;20018;-47
2022/05/14 04:16:22;;;;;;;8.15;3.85;;;;;;;;;;5142524;27;20696;-48
2022/05/14 04:18:48;;;;;;;8.27;3.35;;;;;;;;;;5137936;27;20601;-45
2022/05/14 04:21:13;;;;;;;5.43;4.20;;;;;;;;;;5141235;27;20018;-46
2022/05/14 04:23:38;;;;;;;5.05;3.50;;;;;;;;;;5143643;27;20484;-43
2022/05/14 04:26:04;;;;;;;6.28;4.82;;;;;;;;;;5135502;27;20107;-43
2022/05/14 04:28:29;;;;;;;10.70;4.05;;;;;;;;;;5140662;27;20019;-43
2022/05/14 04:30:55;;;;;;;6.53;3.70;;;;;;;;;;5142916;27;20006;-43
2022/05/14 04:33:20;;;;;;;6.82;3.88;;;;;;;;;;5139148;27;20882;-43
2022/05/14 04:35:46;;;;;;;5.15;3.45;;;;;;;;;;5141699;27;20097;-46
2022/05/14 04:38:11;;;;;;;5.00;3.58;;;;;;;;;;5137802;27;20071;-44
2022/05/14 04:40:37;;;;;;;11.93;3.33;;;;;;;;;;5138150;27;20382;-45
2022/05/14 04:43:06;;;;;;;4.75;2.60;;;;;;;;;;5121567;27;20533;-46
2022/05/14 04:45:32;;;;;;;9.48;3.40;;;;;;;;;;5140989;27;20018;-46
2022/05/14 04:47:57;;;;;;;5.85;4.20;;;;;;;;;;5141384;27;20023;-45
2022/05/14 04:50:22;;;;;;;2.95;2.28;;;;;;;;;;5142992;27;20042;-48
2022/05/14 04:52:48;;;;;;;8.32;2.53;;;;;;;;;;5138800;27;20554;-49
2022/05/14 04:55:13;;;;;;;5.22;2.95;;;;;;;;;;5134745;27;20391;-50
2022/05/14 04:57:40;;;;;;;6.85;3.92;;;;;;;;;;5140787;27;20474;-48
2022/05/14 05:00:06;;;;;;;12.35;3.40;;;;;;;;;;5140095;27;20019;-46
2022/05/14 05:05:15;;;;;;;6.40;3.35;;;;;;;;;;5140903;27;20391;-45
2022/05/14 05:07:41;;;;;;;12.10;3.72;;;;;;;;;;5144182;27;20095;-48
2022/05/14 05:10:06;;;;;;;8.15;3.78;;;;;;;;;;5146321;27;20067;-49
2022/05/14 05:12:31;;;;;;;4.95;2.85;;;;;;;;;;5142198;27;20031;-43
2022/05/14 05:14:57;;;;;;;10.85;4.07;;;;;;;;;;5143384;27;20044;-47
2022/05/14 05:17:22;;;;;;;3.30;2.35;;;;;;;;;;5140559;27;20047;-49
2022/05/14 05:19:47;;;;;;;6.68;2.95;;;;;;;;;;5145898;27;20062;-44
2022/05/14 05:22:13;;;;;;;12.60;2.70;;;;;;;;;;5143421;27;20027;-47
2022/05/14 05:24:38;;;;;;;12.90;3.72;;;;;;;;;;5141583;27;20034;-47
2022/05/14 05:27:04;;;;;;;11.95;7.68;;;;;;;;;;5143720;27;20023;-48
2022/05/14 05:29:29;;;;;;;9.95;6.85;;;;;;;;;;5144387;27;20015;-47
2022/05/14 05:31:54;;;;;;;7.78;6.63;;;;;;;;;;5140276;27;20091;-48
2022/05/14 05:34:20;;;;;;;17.38;8.93;;;;;;;;;;5142584;27;20007;-49
2022/05/14 05:36:45;;;;;;;11.15;8.45;;;;;;;;;;5142367;27;20046;-47
2022/05/14 05:39:10;;;;;;;14.50;8.25;;;;;;;;;;5141342;27;20123;-47
2022/05/14 05:41:37;;;;;;;8.32;6.30;;;;;;;;;;5141485;27;20027;-44
2022/05/14 05:44:02;;;;;;;17.80;7.43;;;;;;;;;;5142252;27;20033;-47
2022/05/14 05:46:28;;;;;;;9.73;6.88;;;;;;;;;;5141438;27;20031;-50
2022/05/14 05:48:53;;;;;;;16.88;8.02;;;;;;;;;;5143407;27;20011;-51
2022/05/14 05:51:18;;;;;;;10.63;5.53;;;;;;;;;;5141997;27;20314;-49
2022/05/14 05:56:46;;;;;;;11.80;4.10;;;;;;;;;;5143200;27;20054;-49
2022/05/14 05:59:12;;;;;;;7.20;6.43;;;;;;;;;;5141577;27;20142;-46
2022/05/14 06:01:37;;;;;;;7.95;4.65;;;;;;;;;;5142973;27;20018;-51
2022/05/14 06:04:02;;;;;;;8.60;4.82;;;;;;;;;;5141553;27;20035;-44
2022/05/14 06:06:28;;;;;;;9.98;5.30;;;;;;;;;;5140262;27;20023;-48
2022/05/14 06:08:54;;;;;;;15.52;4.72;;;;;;;;;;5145443;27;20039;-46
2022/05/14 06:11:19;;;;;;;21.20;12.50;;;;;;;;;;5141960;27;20027;-49
2022/05/14 06:13:45;;;;;;;10.38;5.88;;;;;;;;;;5145407;27;20098;-47
2022/05/14 06:16:11;;;;;;;16.00;4.32;;;;;;;;;;5141191;27;20582;-48
2022/05/14 06:18:37;;;;;;;6.63;4.65;;;;;;;;;;5140275;27;20034;-48
2022/05/14 06:21:03;;;;;;;6.30;4.13;;;;;;;;;;5144395;27;20462;-46
2022/05/14 06:23:28;;;;;;;5.47;4.75;;;;;;;;;;5141306;27;20114;-47
2022/05/14 06:25:54;;;;;;;5.47;3.42;;;;;;;;;;5140870;27;20182;-47
2022/05/14 06:28:19;;;;;;;23.50;4.38;;;;;;;;;;5141010;27;20067;-48
2022/05/14 06:30:44;;;;;;;6.43;3.88;;;;;;;;;;5141805;27;20042;-47
2022/05/14 06:33:11;;;;;;;6.18;3.53;;;;;;;;;;5141493;27;20379;-49
2022/05/14 06:35:37;;;;;;;8.15;4.18;;;;;;;;;;5141160;27;20042;-46
2022/05/14 06:38:03;;;;;;;7.28;4.47;;;;;;;;;;5142563;27;20096;-49
2022/05/14 06:40:28;;;;;;;6.25;4.10;;;;;;;;;;5141031;27;20486;-48
2022/05/14 06:42:54;;;;;;;6.03;4.20;;;;;;;;;;5144782;27;20106;-49
2022/05/14 06:45:19;;;;;;;7.30;6.50;;;;;;;;;;5141445;27;20559;-45
2022/05/14 06:47:44;;;;;;;10.80;5.47;;;;;;;;;;5139666;27;20019;-44
2022/05/14 06:50:10;;;;;;;18.70;8.35;;;;;;;;;;5143152;27;20030;-46
2022/05/14 06:52:36;;;;;;;10.55;7.88;;;;;;;;;;5140126;27;20022;-48
2022/05/14 06:55:01;;;;;;;11.07;5.90;;;;;;;;;;5123642;27;20019;-45
2022/05/14 06:57:28;;;;;;;7.05;4.72;;;;;;;;;;5140002;27;20106;-45
2022/05/14 06:59:54;;;;;;;8.90;6.60;;;;;;;;;;5140051;27;20018;-51
2022/05/14 07:02:19;;;;;;;14.30;8.90;;;;;;;;;;5140676;27;20084;-48
2022/05/14 07:07:29;;;;;;;13.23;10.43;;;;;;;;;;5141834;27;20033;-42
2022/05/14 07:09:55;;;;;;;18.45;12.43;;;;;;;;;;5139123;27;20015;-46
2022/05/14 07:12:21;;;;;;;22.83;14.75;;;;;;;;;;5138807;27;20010;-45
2022/05/14 07:14:46;;;;;;;13.63;10.02;;;;;;;;;;5141749;27;20046;-48
2022/05/14 07:17:12;;;;;;;11.50;8.02;;;;;;;;;;5139970;27;20098;-47
2022/05/14 07:19:38;;;;;;;15.70;6.72;;;;;;;;;;5139677;27;20500;-46
2022/05/14 07:22:03;;;;;;;5.78;4.38;;;;;;;;;;5137039;27;20432;-45
2022/05/14 07:24:30;;;;;;;9.75;5.53;;;;;;;;;;5141562;27;20026;-47
2022/05/14 07:26:56;;;;;;;9.23;5.28;;;;;;;;;;5139741;27;20110;-45
2022/05/14 07:29:22;;;;;;;13.95;9.02;;;;;;;;;;5141707;27;20028;-47
2022/05/14 07:31:48;;;;;;;11.35;8.45;;;;;;;;;;5139426;27;20585;-50
2022/05/14 07:34:13;;;;;;;9.88;7.72;;;;;;;;;;5138270;27;20106;-49
2022/05/14 07:36:42;;;;;;;18.85;10.15;;;;;;;;;;5140642;27;20050;-48
2022/05/14 07:39:07;;;;;;;17.52;13.95;;;;;;;;;;5121672;27;20023;-47
2022/05/14 07:41:34;;;;;;;17.48;14.13;;;;;;;;;;5138595;27;20542;-45
2022/05/14 07:44:01;;;;;;;17.27;11.32;;;;;;;;;;5141386;27;20026;-47
2022/05/14 07:46:28;;;;;;;10.63;7.88;;;;;;;;;;5141777;27;20038;-49
2022/05/14 07:48:54;;;;;;;9.60;5.30;;;;;;;;;;5139156;27;20489;-46
2022/05/14 07:51:20;;;;;;;12.13;4.13;;;;;;;;;;5140931;27;20043;-50
2022/05/14 07:53:45;;;;;;;3.50;1.80;;;;;;;;;;5140065;27;20035;-48
2022/05/14 07:56:11;;;;;;;11.38;3.97;;;;;;;;;;5139203;27;20100;-48
2022/05/14 07:58:37;;;;;;;16.17;3.25;;;;;;;;;;5142524;27;20582;-48
2022/05/14 08:01:03;;;;;;;6.10;2.53;;;;;;;;;;5140161;27;20019;-51
2022/05/14 08:03:28;;;;;;;11.82;3.40;;;;;;;;;;5141966;27;20040;-49
2022/05/14 08:05:54;;;;;;;4.13;3.05;;;;;;;;;;5138717;27;20027;-48
2022/05/14 08:08:20;;;;;;;4.97;3.20;;;;;;;;;;5139473;27;20019;-45
2022/05/14 08:10:47;;;;;;;19.15;4.28;;;;;;;;;;5139621;27;20020;-51
2022/05/14 08:13:15;;;;;;;4.20;3.05;;;;;;;;;;5142472;27;20019;-50
2022/05/14 08:15:45;;;;;;;7.13;3.85;;;;;;;;;;5139085;27;20019;-48
2022/05/14 08:18:10;;;;;;;5.72;2.97;;;;;;;;;;5138533;27;20019;-48
2022/05/14 08:20:36;;;;;;;12.68;5.30;;;;;;;;;;5142515;27;20071;-47
2022/05/14 08:25:47;;;;;;;7.63;4.47;;;;;;;;;;5139684;27;20569;-46
2022/05/14 08:28:13;;;;;;;11.13;5.47;;;;;;;;;;5139776;27;20042;-48
2022/05/14 08:30:38;;;;;;;6.88;4.82;;;;;;;;;;5141080;27;20145;-45
2022/05/14 08:33:05;;;;;;;4.63;3.65;;;;;;;;;;5143028;27;20367;-47
2022/05/14 08:35:30;;;;;;;4.85;3.97;;;;;;;;;;5139815;27;20027;-48
2022/05/14 08:37:56;;;;;;;5.82;3.92;;;;;;;;;;5139984;27;20026;-51
2022/05/14 20:47:04;;;;;;;8.43;4.63;;;;;;;;;;5135346;27;20518;-52
2022/05/14 20:49:29;;;;;;;7.72;4.68;;;;;;;;;;5137250;27;20059;-48
2022/05/14 20:51:55;;;;;;;6.43;3.30;;;;;;;;;;5132151;27;20114;-48
2022/05/14 20:54:20;;;;;;;5.65;2.72;;;;;;;;;;5137418;27;20448;-45
2022/05/14 20:56:45;;;;;;;4.93;2.95;;;;;;;;;;5139580;27;20038;-46
2022/05/14 20:59:11;;;;;;;13.40;2.55;;;;;;;;;;5137236;27;20611;-45
2022/05/14 21:01:36;;;;;;;13.60;4.00;;;;;;;;;;5136061;27;20516;-50
2022/05/14 21:04:01;;;;;;;5.60;3.15;;;;;;;;;;5137146;27;20038;-48
2022/05/14 21:06:27;;;;;;;7.20;4.47;;;;;;;;;;5135899;27;20110;-48
2022/05/14 21:08:52;;;;;;;7.15;3.80;;;;;;;;;;5137327;27;20121;-46
2022/05/14 21:11:18;;;;;;;6.30;4.57;;;;;;;;;;5138656;27;20364;-45
2022/05/14 21:13:45;;;;;;;12.25;5.15;;;;;;;;;;5139949;27;20091;-50
2022/05/14 21:16:10;;;;;;;8.18;4.90;;;;;;;;;;5139494;27;20043;-49
2022/05/14 21:18:36;;;;;;;11.85;4.15;;;;;;;;;;5137809;27;20589;-49
2022/05/14 21:21:01;;;;;;;8.07;3.28;;;;;;;;;;5138124;27;20389;-46
2022/05/14 21:23:26;;;;;;;8.05;3.90;;;;;;;;;;5137171;27;20099;-50
2022/05/14 21:25:51;;;;;;;17.67;4.68;;;;;;;;;;5137549;27;20926;-51
2022/05/14 21:28:17;;;;;;;14.20;3.33;;;;;;;;;;5136586;27;20195;-49
2022/05/14 21:30:42;;;;;;;3.80;3.17;;;;;;;;;;5137394;27;20527;-49
2022/05/14 21:33:08;;;;;;;6.53;3.53;;;;;;;;;;5135064;27;20043;-51
2022/05/14 21:38:17;;;;;;;7.32;4.03;;;;;;;;;;5136633;27;20108;-48
2022/05/14 21:40:43;;;;;;;8.43;3.35;;;;;;;;;;5140047;27;20047;-47
2022/05/14 21:43:12;;;;;;;8.07;4.30;;;;;;;;;;5135518;27;20035;-50
2022/05/14 21:45:39;;;;;;;10.63;5.25;;;;;;;;;;5135895;27;20035;-46
2022/05/14 21:48:05;;;;;;;13.18;4.72;;;;;;;;;;5137510;27;20023;-47
2022/05/14 21:50:31;;;;;;;8.70;3.38;;;;;;;;;;5141741;27;20069;-48
2022/05/14 21:53:00;;;;;;;6.32;2.88;;;;;;;;;;5140227;27;20035;-47
2022/05/14 21:55:27;;;;;;;6.05;3.53;;;;;;;;;;5143303;27;20039;-50
2022/05/14 21:57:53;;;;;;;14.27;4.63;;;;;;;;;;5137606;27;20118;-46
2022/05/14 22:00:18;;;;;;;10.73;2.70;;;;;;;;;;5139836;27;20435;-46
2022/05/14 22:02:44;;;;;;;10.35;4.03;;;;;;;;;;5140198;27;20031;-50
2022/05/14 22:05:09;;;;;;;8.80;5.00;;;;;;;;;;5144425;27;20389;-49
2022/05/14 22:07:35;;;;;;;15.75;3.85;;;;;;;;;;5121207;27;20043;-50
2022/05/14 22:10:00;;;;;;;7.55;3.55;;;;;;;;;;5140272;27;20671;-46
2022/05/14 22:12:25;;;;;;;5.15;3.10;;;;;;;;;;5141998;27;20387;-44
2022/05/14 22:14:53;;;;;;;15.82;4.25;;;;;;;;;;5139635;27;20057;-45
2022/05/14 22:17:18;;;;;;;7.78;4.18;;;;;;;;;;5138774;27;20055;-47
2022/05/14 22:19:44;;;;;;;5.10;3.35;;;;;;;;;;5143455;27;20065;-49
2022/05/14 22:22:09;;;;;;;4.82;3.25;;;;;;;;;;5139832;27;20479;-49
2022/05/14 22:24:34;;;;;;;9.27;3.63;;;;;;;;;;5140948;27;20043;-50
2022/05/14 22:27:00;;;;;;;16.77;4.65;;;;;;;;;;5142137;27;20082;-50
2022/05/14 22:29:26;;;;;;;6.25;3.75;;;;;;;;;;5141348;27;20043;-46
2022/05/14 22:31:51;;;;;;;9.80;4.10;;;;;;;;;;5139053;27;20093;-49
2022/05/14 22:34:16;;;;;;;7.60;4.30;;;;;;;;;;5141309;27;20046;-47
2022/05/14 22:36:42;;;;;;;8.30;4.15;;;;;;;;;;5140454;27;20045;-44
2022/05/14 22:39:07;;;;;;;7.20;4.75;;;;;;;;;;5140950;27;20495;-46
2022/05/14 22:41:32;;;;;;;9.98;5.25;;;;;;;;;;5141633;27;20031;-49
2022/05/14 22:43:58;;;;;;;10.90;4.18;;;;;;;;;;5140998;27;20038;-56
2022/05/14 22:46:23;;;;;;;4.97;3.25;;;;;;;;;;5140671;27;20050;-47
2022/05/14 22:48:48;;;;;;;7.68;4.43;;;;;;;;;;5141191;27;20031;-49
2022/05/14 22:51:14;;;;;;;16.73;6.97;;;;;;;;;;5142788;27;20034;-47
2022/05/14 22:53:40;;;;;;;8.02;4.18;;;;;;;;;;5141052;27;20420;-47
2022/05/14 22:56:06;;;;;;;7.18;4.80;;;;;;;;;;5141863;27;20051;-49
2022/05/14 22:58:34;;;;;;;9.90;4.85;;;;;;;;;;5138158;27;20660;-49
2022/05/14 23:01:00;;;;;;;4.50;2.90;;;;;;;;;;5138902;27;20055;-46
2022/05/14 23:03:26;;;;;;;3.85;2.58;;;;;;;;;;5142468;27;20068;-49
2022/05/14 23:05:53;;;;;;;11.20;3.20;;;;;;;;;;5141067;27;20055;-50
2022/05/14 23:08:18;;;;;;;9.40;4.90;;;;;;;;;;5140064;27;20059;-45
2022/05/14 23:10:44;;;;;;;4.50;2.25;;;;;;;;;;5140343;27;20458;-44
2022/05/14 23:13:10;;;;;;;13.02;3.55;;;;;;;;;;5140321;27;20590;-48
2022/05/14 23:15:36;;;;;;;9.25;3.83;;;;;;;;;;5139175;27;20099;-49
2022/05/14 23:18:02;;;;;;;5.22;3.72;;;;;;;;;;5138997;27;20046;-47
2022/05/14 23:20:31;;;;;;;10.60;3.63;;;;;;;;;;5139691;27;20634;-47
2022/05/14 23:22:56;;;;;;;5.30;2.72;;;;;;;;;;5139138;27;20054;-50
2022/05/14 23:25:23;;;;;;;7.40;3.95;;;;;;;;;;5139946;27;20568;-46
2022/05/14 23:27:49;;;;;;;4.28;3.88;;;;;;;;;;5141525;27;20042;-46
2022/05/14 23:30:16;;;;;;;5.93;4.25;;;;;;;;;;5141147;27;20091;-44
2022/05/14 23:32:41;;;;;;;14.10;4.63;;;;;;;;;;5136353;27;20031;-45
2022/05/14 23:35:07;;;;;;;5.60;4.22;;;;;;;;;;5139171;27;20369;-46
2022/05/14 23:37:33;;;;;;;7.32;3.90;;;;;;;;;;5141518;27;20067;-47
2022/05/14 23:39:59;;;;;;;9.20;5.45;;;;;;;;;;5136633;27;20047;-46
2022/05/14 23:42:26;;;;;;;16.92;5.20;;;;;;;;;;5140494;27;20050;-49
2022/05/14 23:44:51;;;;;;;10.80;4.85;;;;;;;;;;5139135;27;20057;-49
2022/05/14 23:47:16;;;;;;;6.13;3.80;;;;;;;;;;5140409;27;20050;-48
2022/05/14 23:49:42;;;;;;;5.03;4.05;;;;;;;;;;5141329;27;20559;-49
2022/05/14 23:52:07;;;;;;;5.50;3.42;;;;;;;;;;5140251;27;20047;-49
2022/05/14 23:54:32;;;;;;;4.78;3.28;;;;;;;;;;5137077;27;20035;-50
2022/05/14 23:56:58;;;;;;;8.50;5.07;;;;;;;;;;5138781;27;20047;-47
